Rockenbach Airport

Jump to: basic info | weather | runways | comments

Related pages: nearby airports | nearby navaids | notams | map

Basic information (top)

Codes: LL97
Location: lon 42.338902, lat -88.084801, elev 800 ft / 244 m msl
Status: small_airport

Weather (top)

Current conditions for Waukegan Regional Airport 11nm (20km) ENE (rec'd 2014/10/31 04:55Z):

KUGN 310455Z AUTO 26004KT 10SM BKN055 BKN070 OVC090 08/02 A3002 RMK AO2 SLP168 T00780022

Airport forecast for Kenosha Regional Airport 17nm (31km) NNE (rec'd 2014/10/30 00:42Z):

TAF KENW 302340Z 3100/3124 28005KT P6SM OVC050 
     FM310500 31010G17KT P6SM OVC040 
     FM310700 32014G23KT P6SM VCSH BKN025 OVC040 
     FM311100 33020G31KT 5SM -SHSN OVC025 
     FM311300 34024G35KT 3SM -SHSN BKN010 OVC025 
     FM311400 34026G37KT P6SM -SHSN BKN025 
     FM311600 35028G40KT P6SM BKN035 
     FM312000 36027G37KT P6SM SCT040

Runways (top)

N/S: 2,000 x 100 ft (610 x 30 m) — grass — not lighted

Latest comments (top)

No comments yet for Rockenbach Airport

More... (top)

See also NOTAMs and nearby airports and navaids, or visit the Rockenbach Airport page at the main OurAirports website..